Terminal Aerodrome Forecast
Issued by NWS

Home | Current Version | Previous Version | Text Only | Print | Product List | Glossary On
Versions: 1 2 3 4 5 6 7 8 9 10 11 12 13 14 15 16 17
000
FTUS44 KSJT 171100
TAFBBD
TAF
KBBD 171138Z 1712/1812 VRB04KT P6SM BKN012
      TEMPO 1712/1715 BKN004
     FM171500 VRB05KT P6SM SCT035 SCT120
     FM171800 10006KT P6SM SCT050 BKN200
     FM180900 15007KT P6SM SCT025
      AMD NOT SKED=

USA.gov is the U.S. government's official web portal to all federal, state and local government web resources and services.